CheckWX is a tool to help pilots better visualize weather data.  It is not intended as a substitute for an official pre-flight weather briefing.

04:55:04 UTC

EHRD METAR
Rotterdam Airport
Rotterdam, The Netherlands
Current

30 mins ago

EHRD 230425Z AUTO 17006KT 9999 NSC 11/05 Q1018 NOSIG
Observed
May-23 @ 04:25 UTC
Wind
  • 170° at 6 KTS
Visibility
10,000+ meters
Flight Rules
VFR
Cloud Levels
  • Clear skies
Temperature
11°C / 52°F
Dewpoint
C / 41°F
Humidity
67%
Altimeter
30.06" Hg
Pressure
1017.92 hPa
Previous

60 mins ago

EHRD 230355Z AUTO 17006KT 9999 NCD 10/05 Q1018 NOSIG
Observed
May-23 @ 03:55 UTC
Wind
  • 170° at 6 KTS
Visibility
10,000+ meters
Flight Rules
VFR
Cloud Levels
  • Clear skies
Temperature
10°C / 50°F
Dewpoint
C / 41°F
Humidity
71%
Altimeter
30.06" Hg
Pressure
1017.92 hPa
Previous

2 hours ago

EHRD 230325Z AUTO 17006KT 9999 NCD 10/05 Q1018 NOSIG
Observed
May-23 @ 03:25 UTC
Wind
  • 170° at 6 KTS
Visibility
10,000+ meters
Flight Rules
VFR
Cloud Levels
  • Clear skies
Temperature
10°C / 50°F
Dewpoint
C / 41°F
Humidity
71%
Altimeter
30.06" Hg
Pressure
1017.92 hPa